createdAt,value
2022-09-09T00:02:33.543Z,100289.84
2022-09-09T00:05:30.970Z,100284.88
2022-09-09T00:08:25.724Z,100282.28
2022-09-09T00:11:23.068Z,100279.44
2022-09-09T00:14:34.633Z,100278.69
2022-09-09T00:17:57.193Z,100279.28
2022-09-09T00:21:07.294Z,100272.91
2022-09-09T00:23:55.892Z,100263.41
2022-09-09T00:26:50.836Z,100276.63
2022-09-09T00:29:54.730Z,100271.50
2022-09-09T00:32:42.227Z,100282.03
2022-09-09T00:35:34.068Z,100277.53
2022-09-09T00:38:42.949Z,100285.97
2022-09-09T00:41:35.888Z,100271.94
2022-09-09T00:44:30.859Z,100281.78
2022-09-09T00:47:40.180Z,100269.19
2022-09-09T00:50:35.271Z,100275.84
2022-09-09T00:53:59.544Z,100275.84
2022-09-09T00:57:12.819Z,100280.50
2022-09-09T01:00:21.894Z,100282.38
2022-09-09T01:03:21.710Z,100289.41
2022-09-09T01:06:30.372Z,100288.75
2022-09-09T01:09:56.157Z,100278.28
2022-09-09T01:12:47.865Z,100283.25
2022-09-09T01:15:36.505Z,100276.13
2022-09-09T01:18:29.277Z,100281.59
2022-09-09T01:21:35.260Z,100277.81
2022-09-09T01:24:36.409Z,100270.88
2022-09-09T01:27:26.084Z,100269.94
2022-09-09T01:30:16.914Z,100257.72
2022-09-09T01:33:05.280Z,100262.25
2022-09-09T01:36:01.665Z,100269.97
2022-09-09T01:38:49.026Z,100269.72
2022-09-09T01:41:36.297Z,100271.03
2022-09-09T01:44:24.289Z,100273.66
2022-09-09T01:47:11.602Z,100281.25
2022-09-09T01:50:00.389Z,100282.47
2022-09-09T01:52:52.442Z,100279.97
2022-09-09T01:55:42.432Z,100272.84
2022-09-09T01:58:36.180Z,100234.75
2022-09-09T02:02:03.585Z,100279.00
2022-09-09T02:05:02.537Z,100278.53
2022-09-09T02:07:53.368Z,100272.66
2022-09-09T02:11:10.081Z,100277.69
2022-09-09T02:14:18.744Z,100275.19
2022-09-09T02:17:17.552Z,100282.44
2022-09-09T02:20:13.662Z,100276.88
2022-09-09T02:23:02.628Z,100281.25
2022-09-09T02:25:53.795Z,100274.72
2022-09-09T02:28:43.001Z,100277.19
2022-09-09T02:31:32.506Z,100268.28
2022-09-09T02:34:22.699Z,100269.94
2022-09-09T02:37:11.706Z,100272.41
2022-09-09T02:39:58.973Z,100269.25
2022-09-09T02:42:48.228Z,100264.94
2022-09-09T02:45:58.851Z,100230.06
2022-09-09T02:48:56.040Z,100263.66
2022-09-09T02:52:03.057Z,100258.31
2022-09-09T02:54:55.377Z,100259.47
2022-09-09T02:57:44.384Z,100256.84
2022-09-09T03:00:32.061Z,100241.78
2022-09-09T03:03:21.193Z,100249.84
2022-09-09T03:06:08.504Z,100246.03
2022-09-09T03:08:55.686Z,100248.28
2022-09-09T03:11:42.974Z,100242.25
2022-09-09T03:14:31.329Z,100246.63
2022-09-09T03:17:18.677Z,100246.56
2022-09-09T03:20:06.523Z,100243.19
2022-09-09T03:22:54.451Z,100241.53
2022-09-09T03:25:48.364Z,100251.38
2022-09-09T03:28:36.520Z,100252.47
2022-09-09T03:31:23.981Z,100245.91
2022-09-09T03:34:11.749Z,100247.72
2022-09-09T03:36:58.969Z,100250.47
2022-09-09T03:39:46.361Z,100244.50
2022-09-09T03:42:33.612Z,100252.34
2022-09-09T03:45:20.817Z,100258.75
2022-09-09T03:48:08.050Z,100254.13
2022-09-09T03:50:58.641Z,100248.78
2022-09-09T03:53:45.874Z,100264.38
2022-09-09T03:56:33.090Z,100252.72
2022-09-09T03:59:21.518Z,100254.97
2022-09-09T04:02:09.641Z,100245.22
2022-09-09T04:04:57.166Z,100245.91
2022-09-09T04:07:44.515Z,100246.56
2022-09-09T04:10:32.750Z,100249.28
2022-09-09T04:13:20.698Z,100243.53
2022-09-09T04:16:10.343Z,100230.97
2022-09-09T04:18:58.923Z,100242.09
2022-09-09T04:21:46.105Z,100239.16
2022-09-09T04:24:33.322Z,100245.69
2022-09-09T04:27:20.523Z,100237.13
2022-09-09T04:30:08.462Z,100246.56
2022-09-09T04:32:55.713Z,100244.63
2022-09-09T04:35:48.712Z,100260.22
2022-09-09T04:38:36.650Z,100249.00
2022-09-09T04:41:24.463Z,100251.88
2022-09-09T04:44:12.023Z,100249.28
2022-09-09T04:46:59.285Z,100254.47
2022-09-09T04:49:46.677Z,100248.19
2022-09-09T04:52:38.314Z,100256.63
2022-09-09T04:55:25.521Z,100252.59
2022-09-09T04:58:12.718Z,100256.84
2022-09-09T05:01:08.509Z,100227.53
2022-09-09T05:03:55.862Z,100272.91
2022-09-09T05:06:43.296Z,100256.50
2022-09-09T05:09:31.411Z,100248.03
2022-09-09T05:12:18.682Z,100255.53
2022-09-09T05:15:06.878Z,100254.44
2022-09-09T05:18:01.166Z,100249.50
2022-09-09T05:20:48.568Z,100256.59
2022-09-09T05:23:36.324Z,100252.78
2022-09-09T05:26:23.927Z,100247.72
2022-09-09T05:29:11.341Z,100255.75
2022-09-09T05:31:58.692Z,100260.66
2022-09-09T05:34:45.958Z,100260.75
2022-09-09T05:37:33.215Z,100270.59
2022-09-09T05:40:21.718Z,100271.09
2022-09-09T05:43:09.504Z,100274.19
2022-09-09T05:48:33.390Z,100265.13
2022-09-09T05:51:26.089Z,100263.84
2022-09-09T05:54:16.254Z,100271.56
2022-09-09T05:57:04.005Z,100277.13
2022-09-09T05:59:51.318Z,100272.25
2022-09-09T06:02:39.766Z,100279.19
2022-09-09T06:05:28.729Z,100275.66
2022-09-09T06:08:15.912Z,100273.59
2022-09-09T06:11:05.644Z,100274.63
2022-09-09T06:13:54.779Z,100277.84
2022-09-09T06:16:44.967Z,100258.16
2022-09-09T06:19:32.276Z,100285.72
2022-09-09T06:22:19.473Z,100285.72
2022-09-09T06:25:07.487Z,100282.72
2022-09-09T06:27:54.691Z,100280.72
2022-09-09T06:30:42.610Z,100284.44
2022-09-09T06:33:35.848Z,100277.78
2022-09-09T06:36:29.009Z,100274.50
2022-09-09T06:39:16.428Z,100276.03
2022-09-09T06:42:03.738Z,100273.41
2022-09-09T06:44:50.986Z,100275.91
2022-09-09T06:47:38.203Z,100273.41
2022-09-09T06:50:25.445Z,100268.41
2022-09-09T06:53:12.689Z,100267.94
2022-09-09T06:56:03.401Z,100267.78
2022-09-09T06:58:52.661Z,100269.28
2022-09-09T07:01:42.040Z,100260.09
2022-09-09T07:04:29.231Z,100264.34
2022-09-09T07:07:20.507Z,100263.50
2022-09-09T07:10:11.131Z,100264.66
2022-09-09T07:12:58.466Z,100254.56
2022-09-09T07:15:45.967Z,100260.28
2022-09-09T07:18:34.316Z,100260.28
2022-09-09T07:21:22.431Z,100260.69
2022-09-09T07:24:11.048Z,100270.81
2022-09-09T07:26:58.283Z,100271.16
2022-09-09T07:29:46.222Z,100222.09
2022-09-09T07:32:33.593Z,100286.84
2022-09-09T07:35:21.128Z,100282.53
2022-09-09T07:38:08.388Z,100283.06
2022-09-09T07:41:04.373Z,100286.06
2022-09-09T07:43:52.239Z,100293.09
2022-09-09T07:46:42.994Z,100296.06
2022-09-09T07:49:32.881Z,100295.38
2022-09-09T07:52:21.760Z,100307.25
2022-09-09T07:55:10.183Z,100307.59
2022-09-09T07:57:57.375Z,100316.22
2022-09-09T08:00:44.635Z,100303.41
2022-09-09T08:03:31.914Z,100305.31
2022-09-09T08:06:19.183Z,100315.13
2022-09-09T08:09:07.852Z,100312.31
2022-09-09T08:11:57.308Z,100315.81
2022-09-09T08:14:44.384Z,100312.88
2022-09-09T08:17:31.499Z,100323.03
2022-09-09T08:20:19.228Z,100314.31
2022-09-09T08:23:06.479Z,100310.47
2022-09-09T08:25:53.698Z,100307.78
2022-09-09T08:28:41.860Z,100310.44
2022-09-09T08:31:32.150Z,100299.81
2022-09-09T08:34:22.245Z,100305.94
2022-09-09T08:37:09.465Z,100305.22
2022-09-09T08:39:57.156Z,100308.47
2022-09-09T08:42:52.736Z,100297.94
2022-09-09T08:45:57.287Z,100306.81
2022-09-09T08:48:59.218Z,100309.38
2022-09-09T08:51:46.517Z,100316.72
2022-09-09T08:54:51.576Z,100311.47
2022-09-09T08:57:39.973Z,100314.91
2022-09-09T09:00:44.185Z,100323.38
2022-09-09T09:03:54.856Z,100312.88
2022-09-09T09:07:09.657Z,100323.25
2022-09-09T09:10:40.645Z,100321.78
2022-09-09T09:13:46.613Z,100319.19
2022-09-09T09:16:57.387Z,100315.06
2022-09-09T09:19:45.002Z,100317.56
2022-09-09T09:22:51.632Z,100322.72
2022-09-09T09:25:42.080Z,100325.63
2022-09-09T09:28:33.595Z,100336.69
2022-09-09T09:31:21.080Z,100325.59
2022-09-09T09:34:09.613Z,100323.31
2022-09-09T09:36:58.378Z,100328.88
2022-09-09T09:42:58.029Z,100327.72
2022-09-09T09:46:06.936Z,100328.50
2022-09-09T09:48:59.834Z,100324.91
2022-09-09T09:51:47.972Z,100322.00
2022-09-09T09:54:39.974Z,100321.06
2022-09-09T09:57:30.902Z,100327.31
2022-09-09T10:00:21.599Z,100321.84
2022-09-09T10:03:38.449Z,100325.72
2022-09-09T10:06:32.305Z,100323.06
2022-09-09T10:09:35.154Z,100324.28
2022-09-09T10:12:49.964Z,100325.66
2022-09-09T10:16:00.183Z,100318.19
2022-09-09T10:18:55.757Z,100321.72
2022-09-09T10:21:45.785Z,100318.66
2022-09-09T10:24:45.412Z,100324.66
2022-09-09T10:27:55.510Z,100333.78
2022-09-09T10:31:01.690Z,100320.84
2022-09-09T10:34:14.268Z,100320.06
2022-09-09T10:37:06.359Z,100322.31
2022-09-09T10:40:16.203Z,100314.19
2022-09-09T10:43:25.112Z,100309.13
2022-09-09T10:46:19.943Z,100314.09
2022-09-09T10:49:30.377Z,100317.66
2022-09-09T10:52:49.472Z,100310.50
2022-09-09T10:55:42.943Z,100317.91
2022-09-09T10:58:54.496Z,100329.50
2022-09-09T11:01:50.692Z,100315.13
2022-09-09T11:04:49.505Z,100322.84
2022-09-09T11:07:44.018Z,100304.47
2022-09-09T11:10:49.607Z,100299.28
2022-09-09T11:14:18.849Z,100304.22
2022-09-09T11:17:13.702Z,100303.09
2022-09-09T11:20:01.598Z,100313.53
2022-09-09T11:23:03.473Z,100312.97
2022-09-09T11:25:58.457Z,100300.31
2022-09-09T11:29:05.130Z,100306.63
2022-09-09T11:32:02.261Z,100303.09
2022-09-09T11:35:14.045Z,100298.66
2022-09-09T11:38:16.638Z,100296.88
2022-09-09T11:41:07.595Z,100294.78
2022-09-09T11:43:54.926Z,100285.16
2022-09-09T11:46:42.470Z,100287.94
2022-09-09T11:49:42.642Z,100288.25
2022-09-09T11:52:43.996Z,100294.56
2022-09-09T11:55:37.764Z,100281.06
2022-09-09T11:58:25.206Z,100285.47
2022-09-09T12:01:40.341Z,100287.91
2022-09-09T12:04:46.257Z,100294.78
2022-09-09T12:07:36.659Z,100296.06
2022-09-09T12:10:40.890Z,100285.53
2022-09-09T12:13:28.464Z,100288.84
2022-09-09T12:16:34.869Z,100290.50
2022-09-09T12:19:26.311Z,100296.38
2022-09-09T12:22:36.159Z,100292.81
2022-09-09T12:25:58.341Z,100289.84
2022-09-09T12:28:48.203Z,100294.81
2022-09-09T12:32:15.058Z,100287.66
2022-09-09T12:35:12.613Z,100282.44
2022-09-09T12:38:03.399Z,100286.88
2022-09-09T12:40:58.873Z,100281.63
2022-09-09T12:43:46.851Z,100284.06
2022-09-09T12:46:41.829Z,100279.06
2022-09-09T12:49:37.263Z,100272.66
2022-09-09T12:52:35.142Z,100276.78
2022-09-09T12:55:28.296Z,100272.47
2022-09-09T12:58:18.748Z,100271.75
2022-09-09T13:01:07.110Z,100253.59
2022-09-09T13:03:55.093Z,100262.94
2022-09-09T13:06:42.292Z,100258.81
2022-09-09T13:09:29.750Z,100263.25
2022-09-09T13:12:23.513Z,100249.13
2022-09-09T13:15:20.614Z,100265.94
2022-09-09T13:18:14.021Z,100260.69
2022-09-09T13:21:01.643Z,100263.19
2022-09-09T13:23:53.033Z,100257.38
2022-09-09T13:26:40.684Z,100260.91
2022-09-09T13:29:28.296Z,100256.41
2022-09-09T13:32:18.892Z,100255.31
2022-09-09T13:35:24.645Z,100242.19
2022-09-09T13:38:15.693Z,100240.56
2022-09-09T13:41:06.023Z,100252.69
2022-09-09T13:43:56.181Z,100245.53
2022-09-09T13:46:43.417Z,100249.16
2022-09-09T13:49:31.645Z,100259.34
2022-09-09T13:52:20.291Z,100250.25
2022-09-09T13:55:11.006Z,100254.97
2022-09-09T13:58:03.632Z,100245.31
2022-09-09T14:00:51.137Z,100208.66
2022-09-09T14:03:38.456Z,100241.47
2022-09-09T14:06:25.890Z,100242.56
2022-09-09T14:09:16.617Z,100245.59
2022-09-09T14:12:04.526Z,100248.88
2022-09-09T14:14:51.802Z,100254.97
2022-09-09T14:17:39.831Z,100244.50
2022-09-09T14:20:27.069Z,100243.97
2022-09-09T14:23:15.065Z,100229.59
2022-09-09T14:26:02.653Z,100226.00
2022-09-09T14:28:55.373Z,100238.09
2022-09-09T14:31:43.041Z,100236.78
2022-09-09T14:34:30.275Z,100249.97
2022-09-09T14:37:18.691Z,100248.28
2022-09-09T14:40:06.652Z,100241.66
2022-09-09T14:42:54.269Z,100253.66
2022-09-09T14:45:41.570Z,100251.97
2022-09-09T14:48:29.989Z,100271.75
2022-09-09T14:51:23.331Z,100271.78
2022-09-09T14:54:11.770Z,100271.72
2022-09-09T14:56:59.750Z,100270.09
2022-09-09T14:59:47.058Z,100269.63
2022-09-09T15:02:34.738Z,100270.28
2022-09-09T15:05:22.480Z,100273.16
2022-09-09T15:08:09.696Z,100269.66
2022-09-09T15:11:01.885Z,100263.94
2022-09-09T15:13:53.575Z,100258.75
2022-09-09T15:16:41.493Z,100265.09
2022-09-09T15:19:28.946Z,100268.06
2022-09-09T15:22:16.133Z,100275.22
2022-09-09T15:25:03.503Z,100288.13
2022-09-09T15:27:50.701Z,100282.50
2022-09-09T15:30:37.967Z,100280.69
2022-09-09T15:33:25.193Z,100276.16
2022-09-09T15:36:21.704Z,100279.66
2022-09-09T15:39:14.074Z,100280.81
2022-09-09T15:42:01.525Z,100280.03
2022-09-09T15:44:48.725Z,100279.56
2022-09-09T15:47:35.974Z,100284.72
2022-09-09T15:50:23.826Z,100290.84
2022-09-09T15:53:12.225Z,100295.78
2022-09-09T15:56:00.142Z,100306.19
2022-09-09T15:58:47.387Z,100310.19
2022-09-09T16:01:35.188Z,100307.94
2022-09-09T16:04:24.588Z,100310.03
2022-09-09T16:07:11.927Z,100299.41
2022-09-09T16:09:59.758Z,100304.88
2022-09-09T16:12:46.996Z,100291.78
2022-09-09T16:15:34.193Z,100311.63
2022-09-09T16:18:21.553Z,100302.91
2022-09-09T16:21:12.041Z,100309.97
2022-09-09T16:24:01.479Z,100301.81
2022-09-09T16:26:49.785Z,100303.50
2022-09-09T16:29:37.266Z,100261.75
2022-09-09T16:32:24.549Z,100302.47
2022-09-09T16:35:11.853Z,100302.06
2022-09-09T16:37:59.049Z,100298.38
2022-09-09T16:40:46.405Z,100294.50
2022-09-09T16:43:35.069Z,100295.13
2022-09-09T16:46:23.167Z,100295.59
2022-09-09T16:49:13.334Z,100311.72
2022-09-09T16:52:00.810Z,100318.19
2022-09-09T16:54:48.148Z,100313.97
2022-09-09T16:57:35.431Z,100319.66
2022-09-09T17:00:24.249Z,100320.72
2022-09-09T17:03:14.363Z,100315.31
2022-09-09T17:06:03.254Z,100319.13
2022-09-09T17:09:02.180Z,100327.44
2022-09-09T17:11:51.596Z,100331.63
2022-09-09T17:14:39.305Z,100329.03
2022-09-09T17:17:32.085Z,100338.84
2022-09-09T17:20:20.347Z,100333.78
2022-09-09T17:23:08.897Z,100333.19
2022-09-09T17:26:00.070Z,100348.06
2022-09-09T17:28:47.487Z,100345.22
2022-09-09T17:31:34.991Z,100343.91
2022-09-09T17:34:22.240Z,100341.56
2022-09-09T17:37:09.489Z,100348.22
2022-09-09T17:39:56.855Z,100345.47
2022-09-09T17:42:44.105Z,100345.78
2022-09-09T17:45:31.312Z,100352.28
2022-09-09T17:50:47.429Z,100357.28
2022-09-09T17:53:43.407Z,100359.44
2022-09-09T17:56:32.212Z,100360.78
2022-09-09T17:59:19.478Z,100369.06
2022-09-09T18:02:07.184Z,100374.22
2022-09-09T18:04:54.509Z,100377.03
2022-09-09T18:07:41.701Z,100377.28
2022-09-09T18:10:28.933Z,100375.69
2022-09-09T18:13:17.214Z,100380.00
2022-09-09T18:16:08.714Z,100383.22
2022-09-09T18:18:58.331Z,100396.34
2022-09-09T18:21:46.313Z,100382.19
2022-09-09T18:24:33.692Z,100391.22
2022-09-09T18:27:20.908Z,100390.69
2022-09-09T18:30:10.038Z,100387.28
2022-09-09T18:32:57.810Z,100386.06
2022-09-09T18:35:47.209Z,100387.56
2022-09-09T18:38:35.707Z,100382.19
2022-09-09T18:41:31.970Z,100384.00
2022-09-09T18:44:24.648Z,100380.81
2022-09-09T18:47:11.881Z,100394.13
2022-09-09T18:49:59.090Z,100393.19
2022-09-09T18:52:46.271Z,100394.13
2022-09-09T18:55:33.854Z,100392.97
2022-09-09T18:58:21.070Z,100396.78
2022-09-09T19:01:13.925Z,100399.28
2022-09-09T19:04:03.289Z,100395.00
2022-09-09T19:06:57.450Z,100396.66
2022-09-09T19:09:44.929Z,100399.28
2022-09-09T19:12:32.358Z,100395.16
2022-09-09T19:15:19.633Z,100397.66
2022-09-09T19:18:07.317Z,100392.03
2022-09-09T19:20:55.095Z,100397.16
2022-09-09T19:23:42.372Z,100395.97
2022-09-09T19:26:33.113Z,100405.25
2022-09-09T19:29:26.551Z,100395.69
2022-09-09T19:35:20.972Z,100409.06
2022-09-09T19:38:08.167Z,100404.97
2022-09-09T19:40:55.386Z,100417.72
2022-09-09T19:43:42.782Z,100420.06
2022-09-09T19:46:31.327Z,100425.53
2022-09-09T19:49:18.529Z,100430.06
2022-09-09T19:52:05.851Z,100441.59
2022-09-09T19:54:53.064Z,100448.88
2022-09-09T19:57:40.286Z,100440.06
2022-09-09T20:00:27.482Z,100449.44
2022-09-09T20:03:19.483Z,100445.66
2022-09-09T20:06:08.905Z,100416.16
2022-09-09T20:08:57.189Z,100451.13
2022-09-09T20:11:46.242Z,100452.88
2022-09-09T20:14:38.688Z,100447.78
2022-09-09T20:17:27.067Z,100448.03
2022-09-09T20:20:14.344Z,100448.38
2022-09-09T20:23:01.656Z,100451.13
2022-09-09T20:25:48.852Z,100455.28
2022-09-09T20:28:40.829Z,100449.81
2022-09-09T20:31:30.410Z,100451.47
2022-09-09T20:34:21.478Z,100452.31
2022-09-09T20:37:09.887Z,100457.31
2022-09-09T20:39:57.590Z,100459.06
2022-09-09T20:42:44.824Z,100459.91
2022-09-09T20:45:35.791Z,100461.09
2022-09-09T20:48:23.142Z,100466.22
2022-09-09T20:51:10.760Z,100464.91
2022-09-09T20:54:08.193Z,100471.69
2022-09-09T20:56:56.133Z,100456.22
2022-09-09T20:59:44.620Z,100464.53
2022-09-09T21:02:31.910Z,100463.31
2022-09-09T21:05:23.797Z,100461.06
2022-09-09T21:08:11.433Z,100458.84
2022-09-09T21:10:59.313Z,100454.41
2022-09-09T21:13:46.543Z,100428.25
2022-09-09T21:16:34.030Z,100446.91
2022-09-09T21:19:21.264Z,100452.03
2022-09-09T21:22:08.481Z,100452.03
2022-09-09T21:24:55.707Z,100440.50
2022-09-09T21:27:42.902Z,100448.69
2022-09-09T21:30:38.231Z,100446.66
2022-09-09T21:33:28.588Z,100441.19
2022-09-09T21:36:16.009Z,100447.50
2022-09-09T21:39:03.276Z,100447.97
2022-09-09T21:41:50.480Z,100424.56
2022-09-09T21:44:37.681Z,100445.72
2022-09-09T21:47:25.936Z,100450.59
2022-09-09T21:50:14.257Z,100450.59
2022-09-09T21:53:01.484Z,100446.06
2022-09-09T21:55:49.234Z,100445.34
2022-09-09T21:58:36.937Z,100437.72
2022-09-09T22:01:24.822Z,100449.72
2022-09-09T22:04:12.104Z,100452.44
2022-09-09T22:06:59.302Z,100452.56
2022-09-09T22:09:46.532Z,100453.41
2022-09-09T22:12:34.967Z,100455.28
2022-09-09T22:15:22.193Z,100453.41
2022-09-09T22:18:09.778Z,100455.78
2022-09-09T22:20:57.100Z,100452.81
2022-09-09T22:23:46.785Z,100460.75
2022-09-09T22:26:36.954Z,100456.53
2022-09-09T22:29:24.223Z,100447.25
2022-09-09T22:32:11.549Z,100447.94
2022-09-09T22:34:58.841Z,100447.84
2022-09-09T22:37:46.054Z,100450.78
2022-09-09T22:40:36.335Z,100446.72
2022-09-09T22:43:23.538Z,100438.38
2022-09-09T22:46:11.582Z,100445.34
2022-09-09T22:48:59.124Z,100451.44
2022-09-09T22:51:46.304Z,100451.69
2022-09-09T22:54:33.532Z,100464.03
2022-09-09T22:57:20.719Z,100448.25
2022-09-09T23:00:09.153Z,100452.28
2022-09-09T23:02:56.398Z,100454.41
2022-09-09T23:05:43.626Z,100459.66
2022-09-09T23:08:33.936Z,100450.16
2022-09-09T23:11:22.054Z,100429.63
2022-09-09T23:14:11.269Z,100447.81
2022-09-09T23:16:58.944Z,100454.94
2022-09-09T23:19:48.214Z,100460.88
2022-09-09T23:22:36.228Z,100461.44
2022-09-09T23:25:23.443Z,100468.59
2022-09-09T23:28:10.644Z,100457.53
2022-09-09T23:30:58.590Z,100459.28
2022-09-09T23:33:46.481Z,100456.78
2022-09-09T23:36:34.546Z,100458.91
2022-09-09T23:39:23.069Z,100456.16
2022-09-09T23:42:11.327Z,100462.69
2022-09-09T23:44:58.784Z,100457.41
2022-09-09T23:50:22.217Z,100453.38
2022-09-09T23:53:12.087Z,100462.97
2022-09-09T23:55:59.338Z,100457.06
2022-09-09T23:58:48.091Z,100440.41
